sensor_id;sensor_type;location;lat;lon;timestamp;temperature;humidity
31729;DHT22;18309;43.658;1.312;2023-07-24T00:02:01;24.50;99.90
31729;DHT22;18309;43.658;1.312;2023-07-24T00:04:27;24.50;99.90
31729;DHT22;18309;43.658;1.312;2023-07-24T00:06:52;24.50;99.90
31729;DHT22;18309;43.658;1.312;2023-07-24T00:09:18;24.50;99.90
31729;DHT22;18309;43.658;1.312;2023-07-24T00:11:44;24.60;99.90
31729;DHT22;18309;43.658;1.312;2023-07-24T00:14:09;24.60;99.90
31729;DHT22;18309;43.658;1.312;2023-07-24T00:16:35;24.60;99.90
31729;DHT22;18309;43.658;1.312;2023-07-24T00:19:02;24.60;99.90
31729;DHT22;18309;43.658;1.312;2023-07-24T00:21:28;24.60;99.90
31729;DHT22;18309;43.658;1.312;2023-07-24T00:23:53;24.60;99.90
31729;DHT22;18309;43.658;1.312;2023-07-24T00:26:19;24.60;99.90
31729;DHT22;18309;43.658;1.312;2023-07-24T00:28:46;24.40;99.90
31729;DHT22;18309;43.658;1.312;2023-07-24T00:31:11;24.30;99.90
31729;DHT22;18309;43.658;1.312;2023-07-24T00:33:37;24.20;99.90
31729;DHT22;18309;43.658;1.312;2023-07-24T00:36:03;24.30;99.90
31729;DHT22;18309;43.658;1.312;2023-07-24T00:38:28;24.60;99.90
31729;DHT22;18309;43.658;1.312;2023-07-24T00:40:54;24.90;99.90
31729;DHT22;18309;43.658;1.312;2023-07-24T00:43:20;24.90;99.90
31729;DHT22;18309;43.658;1.312;2023-07-24T00:45:47;25.10;99.90
31729;DHT22;18309;43.658;1.312;2023-07-24T00:48:14;25.20;99.90
31729;DHT22;18309;43.658;1.312;2023-07-24T00:50:42;25.30;99.90
31729;DHT22;18309;43.658;1.312;2023-07-24T00:53:08;25.30;99.90
31729;DHT22;18309;43.658;1.312;2023-07-24T00:55:34;25.20;99.90
31729;DHT22;18309;43.658;1.312;2023-07-24T00:58:00;25.00;99.90
31729;DHT22;18309;43.658;1.312;2023-07-24T01:00:27;24.90;99.90
31729;DHT22;18309;43.658;1.312;2023-07-24T01:02:54;24.90;99.90
31729;DHT22;18309;43.658;1.312;2023-07-24T01:05:20;25.10;99.90
31729;DHT22;18309;43.658;1.312;2023-07-24T01:07:46;25.10;99.90
31729;DHT22;18309;43.658;1.312;2023-07-24T01:10:12;24.90;99.90
31729;DHT22;18309;43.658;1.312;2023-07-24T01:13:05;24.90;99.90
31729;DHT22;18309;43.658;1.312;2023-07-24T01:16:00;25.00;99.90
31729;DHT22;18309;43.658;1.312;2023-07-24T01:18:30;24.70;99.90
31729;DHT22;18309;43.658;1.312;2023-07-24T01:20:57;24.30;99.90
31729;DHT22;18309;43.658;1.312;2023-07-24T01:23:38;23.80;99.90
31729;DHT22;18309;43.658;1.312;2023-07-24T01:26:07;23.70;99.90
31729;DHT22;18309;43.658;1.312;2023-07-24T01:28:33;23.70;99.90
31729;DHT22;18309;43.658;1.312;2023-07-24T01:31:00;23.60;99.90
31729;DHT22;18309;43.658;1.312;2023-07-24T01:33:26;23.30;99.90
31729;DHT22;18309;43.658;1.312;2023-07-24T01:35:59;23.20;99.90
31729;DHT22;18309;43.658;1.312;2023-07-24T01:38:26;23.00;99.90
31729;DHT22;18309;43.658;1.312;2023-07-24T01:40:53;22.70;99.90
31729;DHT22;18309;43.658;1.312;2023-07-24T01:43:19;22.70;99.90
31729;DHT22;18309;43.658;1.312;2023-07-24T01:45:45;22.20;99.90
31729;DHT22;18309;43.658;1.312;2023-07-24T01:48:11;21.80;99.90
31729;DHT22;18309;43.658;1.312;2023-07-24T01:50:37;21.70;99.90
31729;DHT22;18309;43.658;1.312;2023-07-24T01:53:02;21.70;99.90
31729;DHT22;18309;43.658;1.312;2023-07-24T01:55:28;21.80;99.90
31729;DHT22;18309;43.658;1.312;2023-07-24T01:57:54;21.70;99.90
31729;DHT22;18309;43.658;1.312;2023-07-24T02:00:19;21.70;99.90
31729;DHT22;18309;43.658;1.312;2023-07-24T02:02:45;21.90;99.90
31729;DHT22;18309;43.658;1.312;2023-07-24T02:05:11;21.90;99.90
31729;DHT22;18309;43.658;1.312;2023-07-24T02:07:36;21.80;99.90
31729;DHT22;18309;43.658;1.312;2023-07-24T02:10:02;21.70;99.90
31729;DHT22;18309;43.658;1.312;2023-07-24T02:12:28;21.50;99.90
31729;DHT22;18309;43.658;1.312;2023-07-24T02:14:54;21.50;99.90
31729;DHT22;18309;43.658;1.312;2023-07-24T02:17:20;21.70;99.90
31729;DHT22;18309;43.658;1.312;2023-07-24T02:19:46;21.80;99.90
31729;DHT22;18309;43.658;1.312;2023-07-24T02:22:12;21.80;99.90
31729;DHT22;18309;43.658;1.312;2023-07-24T02:24:37;21.80;99.90
31729;DHT22;18309;43.658;1.312;2023-07-24T02:27:05;21.90;99.90
31729;DHT22;18309;43.658;1.312;2023-07-24T02:29:31;21.90;99.90
31729;DHT22;18309;43.658;1.312;2023-07-24T02:31:58;22.10;99.90
31729;DHT22;18309;43.658;1.312;2023-07-24T02:34:24;21.70;99.90
31729;DHT22;18309;43.658;1.312;2023-07-24T02:36:54;21.70;99.90
31729;DHT22;18309;43.658;1.312;2023-07-24T02:39:20;21.70;99.90
31729;DHT22;18309;43.658;1.312;2023-07-24T02:41:49;21.70;99.90
31729;DHT22;18309;43.658;1.312;2023-07-24T02:44:15;21.70;99.90
31729;DHT22;18309;43.658;1.312;2023-07-24T02:46:40;21.70;99.90
31729;DHT22;18309;43.658;1.312;2023-07-24T02:49:07;21.70;99.90
31729;DHT22;18309;43.658;1.312;2023-07-24T02:51:32;21.70;99.90
31729;DHT22;18309;43.658;1.312;2023-07-24T02:53:58;21.50;99.90
31729;DHT22;18309;43.658;1.312;2023-07-24T02:56:23;21.60;99.90
31729;DHT22;18309;43.658;1.312;2023-07-24T02:58:49;21.50;99.90
31729;DHT22;18309;43.658;1.312;2023-07-24T03:01:15;21.60;99.90
31729;DHT22;18309;43.658;1.312;2023-07-24T03:03:41;21.50;99.90
31729;DHT22;18309;43.658;1.312;2023-07-24T03:06:07;21.60;99.90
31729;DHT22;18309;43.658;1.312;2023-07-24T03:08:33;21.60;99.90
31729;DHT22;18309;43.658;1.312;2023-07-24T03:11:00;21.30;99.90
31729;DHT22;18309;43.658;1.312;2023-07-24T03:13:27;21.20;99.90
31729;DHT22;18309;43.658;1.312;2023-07-24T03:15:57;21.60;99.90
31729;DHT22;18309;43.658;1.312;2023-07-24T03:18:23;21.30;99.90
31729;DHT22;18309;43.658;1.312;2023-07-24T03:20:49;21.00;99.90
31729;DHT22;18309;43.658;1.312;2023-07-24T03:23:14;21.10;99.90
31729;DHT22;18309;43.658;1.312;2023-07-24T03:25:40;20.90;99.90
31729;DHT22;18309;43.658;1.312;2023-07-24T03:28:06;20.90;99.90
31729;DHT22;18309;43.658;1.312;2023-07-24T03:30:32;21.10;99.90
31729;DHT22;18309;43.658;1.312;2023-07-24T03:32:58;21.00;99.90
31729;DHT22;18309;43.658;1.312;2023-07-24T03:35:24;20.80;99.90
31729;DHT22;18309;43.658;1.312;2023-07-24T03:37:50;20.80;99.90
31729;DHT22;18309;43.658;1.312;2023-07-24T03:40:15;20.80;99.90
31729;DHT22;18309;43.658;1.312;2023-07-24T03:42:41;20.70;99.90
31729;DHT22;18309;43.658;1.312;2023-07-24T03:45:07;20.90;99.90
31729;DHT22;18309;43.658;1.312;2023-07-24T03:47:33;20.90;99.90
31729;DHT22;18309;43.658;1.312;2023-07-24T03:49:59;21.00;99.90
31729;DHT22;18309;43.658;1.312;2023-07-24T03:52:25;21.10;99.90
31729;DHT22;18309;43.658;1.312;2023-07-24T03:54:51;21.10;99.90
31729;DHT22;18309;43.658;1.312;2023-07-24T03:57:17;21.20;99.90
31729;DHT22;18309;43.658;1.312;2023-07-24T03:59:43;21.20;99.90
31729;DHT22;18309;43.658;1.312;2023-07-24T04:02:09;21.10;99.90
31729;DHT22;18309;43.658;1.312;2023-07-24T04:04:34;21.20;99.90
31729;DHT22;18309;43.658;1.312;2023-07-24T04:07:00;21.20;99.90
31729;DHT22;18309;43.658;1.312;2023-07-24T04:09:27;21.20;99.90
31729;DHT22;18309;43.658;1.312;2023-07-24T04:11:53;21.20;99.90
31729;DHT22;18309;43.658;1.312;2023-07-24T04:14:19;21.30;99.90
31729;DHT22;18309;43.658;1.312;2023-07-24T04:16:44;21.30;99.90
31729;DHT22;18309;43.658;1.312;2023-07-24T04:19:10;21.30;99.90
31729;DHT22;18309;43.658;1.312;2023-07-24T04:21:36;21.30;99.90
31729;DHT22;18309;43.658;1.312;2023-07-24T04:24:02;21.30;99.90
31729;DHT22;18309;43.658;1.312;2023-07-24T04:26:27;21.30;99.90
31729;DHT22;18309;43.658;1.312;2023-07-24T04:28:55;21.30;99.90
31729;DHT22;18309;43.658;1.312;2023-07-24T04:31:20;21.20;99.90
31729;DHT22;18309;43.658;1.312;2023-07-24T04:33:46;21.20;99.90
31729;DHT22;18309;43.658;1.312;2023-07-24T04:36:12;21.20;99.90
31729;DHT22;18309;43.658;1.312;2023-07-24T04:38:37;21.20;99.90
31729;DHT22;18309;43.658;1.312;2023-07-24T04:41:03;21.30;99.90
31729;DHT22;18309;43.658;1.312;2023-07-24T04:43:29;21.20;99.90
31729;DHT22;18309;43.658;1.312;2023-07-24T04:45:55;21.20;99.90
31729;DHT22;18309;43.658;1.312;2023-07-24T04:48:20;21.20;99.90
31729;DHT22;18309;43.658;1.312;2023-07-24T04:50:46;21.20;99.90
31729;DHT22;18309;43.658;1.312;2023-07-24T04:53:12;21.20;99.90
31729;DHT22;18309;43.658;1.312;2023-07-24T04:55:38;21.20;99.90
31729;DHT22;18309;43.658;1.312;2023-07-24T04:58:03;21.10;99.90
31729;DHT22;18309;43.658;1.312;2023-07-24T05:00:29;21.10;99.90
31729;DHT22;18309;43.658;1.312;2023-07-24T05:02:55;21.20;99.90
31729;DHT22;18309;43.658;1.312;2023-07-24T05:05:20;21.20;99.90
31729;DHT22;18309;43.658;1.312;2023-07-24T05:07:46;21.10;99.90
31729;DHT22;18309;43.658;1.312;2023-07-24T05:10:12;21.10;99.90
31729;DHT22;18309;43.658;1.312;2023-07-24T05:12:42;21.20;99.90
31729;DHT22;18309;43.658;1.312;2023-07-24T05:15:10;21.10;99.90
31729;DHT22;18309;43.658;1.312;2023-07-24T05:17:36;21.10;99.90
31729;DHT22;18309;43.658;1.312;2023-07-24T05:20:01;21.10;99.90
31729;DHT22;18309;43.658;1.312;2023-07-24T05:22:27;21.10;99.90
31729;DHT22;18309;43.658;1.312;2023-07-24T05:24:53;21.10;99.90
31729;DHT22;18309;43.658;1.312;2023-07-24T05:27:19;21.20;99.90
31729;DHT22;18309;43.658;1.312;2023-07-24T05:29:45;21.20;99.90
31729;DHT22;18309;43.658;1.312;2023-07-24T05:32:10;21.20;99.90
31729;DHT22;18309;43.658;1.312;2023-07-24T05:34:37;21.20;99.90
31729;DHT22;18309;43.658;1.312;2023-07-24T05:37:03;21.10;99.90
31729;DHT22;18309;43.658;1.312;2023-07-24T05:39:29;21.20;99.90
31729;DHT22;18309;43.658;1.312;2023-07-24T05:41:56;21.10;99.90
31729;DHT22;18309;43.658;1.312;2023-07-24T05:44:22;21.10;99.90
31729;DHT22;18309;43.658;1.312;2023-07-24T05:46:48;21.10;99.90
31729;DHT22;18309;43.658;1.312;2023-07-24T05:49:13;21.30;99.90
31729;DHT22;18309;43.658;1.312;2023-07-24T05:51:39;21.30;99.90
31729;DHT22;18309;43.658;1.312;2023-07-24T05:54:05;21.20;99.90
31729;DHT22;18309;43.658;1.312;2023-07-24T05:56:30;21.30;99.90
31729;DHT22;18309;43.658;1.312;2023-07-24T05:58:56;21.20;99.90
31729;DHT22;18309;43.658;1.312;2023-07-24T06:01:22;21.30;99.90
31729;DHT22;18309;43.658;1.312;2023-07-24T06:03:47;21.30;99.90
31729;DHT22;18309;43.658;1.312;2023-07-24T06:06:13;21.40;99.90
31729;DHT22;18309;43.658;1.312;2023-07-24T06:08:39;21.40;99.90
31729;DHT22;18309;43.658;1.312;2023-07-24T06:11:05;21.30;99.90
31729;DHT22;18309;43.658;1.312;2023-07-24T06:13:31;21.40;99.90
31729;DHT22;18309;43.658;1.312;2023-07-24T06:15:56;21.40;99.90
31729;DHT22;18309;43.658;1.312;2023-07-24T06:18:22;21.50;99.90
31729;DHT22;18309;43.658;1.312;2023-07-24T06:20:51;21.40;99.90
31729;DHT22;18309;43.658;1.312;2023-07-24T06:23:17;21.40;99.90
31729;DHT22;18309;43.658;1.312;2023-07-24T06:25:42;21.50;99.90
31729;DHT22;18309;43.658;1.312;2023-07-24T06:28:08;21.60;99.90
31729;DHT22;18309;43.658;1.312;2023-07-24T06:30:34;21.60;99.90
31729;DHT22;18309;43.658;1.312;2023-07-24T06:32:59;21.60;99.90
31729;DHT22;18309;43.658;1.312;2023-07-24T06:35:25;21.50;99.90
31729;DHT22;18309;43.658;1.312;2023-07-24T06:37:51;21.50;99.90
31729;DHT22;18309;43.658;1.312;2023-07-24T06:40:16;21.60;99.90
31729;DHT22;18309;43.658;1.312;2023-07-24T06:42:42;21.50;99.90
31729;DHT22;18309;43.658;1.312;2023-07-24T06:45:08;21.50;99.90
31729;DHT22;18309;43.658;1.312;2023-07-24T06:47:34;21.60;99.90
31729;DHT22;18309;43.658;1.312;2023-07-24T06:50:01;21.60;99.90
31729;DHT22;18309;43.658;1.312;2023-07-24T06:52:27;21.40;99.90
31729;DHT22;18309;43.658;1.312;2023-07-24T06:54:53;21.40;99.90
31729;DHT22;18309;43.658;1.312;2023-07-24T06:57:19;21.20;99.90
31729;DHT22;18309;43.658;1.312;2023-07-24T06:59:44;21.10;99.90
31729;DHT22;18309;43.658;1.312;2023-07-24T07:02:10;21.20;99.90
31729;DHT22;18309;43.658;1.312;2023-07-24T07:04:36;21.30;99.90
31729;DHT22;18309;43.658;1.312;2023-07-24T07:07:01;21.40;99.90
31729;DHT22;18309;43.658;1.312;2023-07-24T07:09:27;21.40;99.90
31729;DHT22;18309;43.658;1.312;2023-07-24T07:11:52;21.40;99.90
31729;DHT22;18309;43.658;1.312;2023-07-24T07:14:18;21.40;99.90
31729;DHT22;18309;43.658;1.312;2023-07-24T07:16:44;21.50;99.90
31729;DHT22;18309;43.658;1.312;2023-07-24T07:19:10;21.60;99.90
31729;DHT22;18309;43.658;1.312;2023-07-24T07:21:35;21.40;99.90
31729;DHT22;18309;43.658;1.312;2023-07-24T07:24:01;21.50;99.90
31729;DHT22;18309;43.658;1.312;2023-07-24T07:26:27;21.50;99.90
31729;DHT22;18309;43.658;1.312;2023-07-24T07:28:54;21.70;99.90
31729;DHT22;18309;43.658;1.312;2023-07-24T07:31:20;21.70;99.90
31729;DHT22;18309;43.658;1.312;2023-07-24T07:33:46;21.90;99.90
31729;DHT22;18309;43.658;1.312;2023-07-24T07:36:12;21.90;99.90
31729;DHT22;18309;43.658;1.312;2023-07-24T07:38:38;22.00;99.90
31729;DHT22;18309;43.658;1.312;2023-07-24T07:41:05;22.00;99.90
31729;DHT22;18309;43.658;1.312;2023-07-24T07:43:31;22.00;99.90
31729;DHT22;18309;43.658;1.312;2023-07-24T07:45:57;21.90;99.90
31729;DHT22;18309;43.658;1.312;2023-07-24T07:48:24;21.90;99.90
31729;DHT22;18309;43.658;1.312;2023-07-24T07:50:52;21.70;99.90
31729;DHT22;18309;43.658;1.312;2023-07-24T07:53:18;21.90;99.90
31729;DHT22;18309;43.658;1.312;2023-07-24T07:55:43;21.80;99.90
31729;DHT22;18309;43.658;1.312;2023-07-24T07:58:09;22.00;99.90
31729;DHT22;18309;43.658;1.312;2023-07-24T08:00:35;22.00;99.90
31729;DHT22;18309;43.658;1.312;2023-07-24T08:03:00;22.10;99.90
31729;DHT22;18309;43.658;1.312;2023-07-24T08:05:26;22.20;99.90
31729;DHT22;18309;43.658;1.312;2023-07-24T08:07:52;22.20;99.90
31729;DHT22;18309;43.658;1.312;2023-07-24T08:10:17;22.10;99.90
31729;DHT22;18309;43.658;1.312;2023-07-24T08:12:43;22.10;99.90
31729;DHT22;18309;43.658;1.312;2023-07-24T08:15:10;22.10;99.90
31729;DHT22;18309;43.658;1.312;2023-07-24T08:17:35;22.20;99.90
31729;DHT22;18309;43.658;1.312;2023-07-24T08:20:01;22.30;99.90
31729;DHT22;18309;43.658;1.312;2023-07-24T08:22:27;22.20;99.90
31729;DHT22;18309;43.658;1.312;2023-07-24T08:24:52;22.30;99.90
31729;DHT22;18309;43.658;1.312;2023-07-24T08:27:19;22.20;99.90
31729;DHT22;18309;43.658;1.312;2023-07-24T08:29:45;22.30;99.90
31729;DHT22;18309;43.658;1.312;2023-07-24T08:32:10;22.30;99.90
31729;DHT22;18309;43.658;1.312;2023-07-24T08:34:36;22.50;99.90
31729;DHT22;18309;43.658;1.312;2023-07-24T08:37:02;22.70;99.90
31729;DHT22;18309;43.658;1.312;2023-07-24T08:39:28;22.70;99.90
31729;DHT22;18309;43.658;1.312;2023-07-24T08:41:53;22.90;99.90
31729;DHT22;18309;43.658;1.312;2023-07-24T08:44:20;23.00;99.90
31729;DHT22;18309;43.658;1.312;2023-07-24T08:46:47;23.00;99.90
31729;DHT22;18309;43.658;1.312;2023-07-24T08:49:14;23.00;99.90
31729;DHT22;18309;43.658;1.312;2023-07-24T08:51:41;23.20;99.90
31729;DHT22;18309;43.658;1.312;2023-07-24T08:54:08;23.10;99.90
31729;DHT22;18309;43.658;1.312;2023-07-24T08:56:33;23.00;99.90
31729;DHT22;18309;43.658;1.312;2023-07-24T08:59:01;23.10;99.90
31729;DHT22;18309;43.658;1.312;2023-07-24T09:01:26;23.20;99.90
31729;DHT22;18309;43.658;1.312;2023-07-24T09:03:52;23.00;99.90
31729;DHT22;18309;43.658;1.312;2023-07-24T09:06:18;22.90;99.90
31729;DHT22;18309;43.658;1.312;2023-07-24T09:08:43;22.70;99.90
31729;DHT22;18309;43.658;1.312;2023-07-24T09:11:13;22.80;99.90
31729;DHT22;18309;43.658;1.312;2023-07-24T09:13:41;22.90;99.90
31729;DHT22;18309;43.658;1.312;2023-07-24T09:16:08;23.00;99.90
31729;DHT22;18309;43.658;1.312;2023-07-24T09:18:41;23.00;99.90
31729;DHT22;18309;43.658;1.312;2023-07-24T09:21:07;23.20;99.90
31729;DHT22;18309;43.658;1.312;2023-07-24T09:23:32;23.10;99.90
31729;DHT22;18309;43.658;1.312;2023-07-24T09:25:58;23.20;99.90
31729;DHT22;18309;43.658;1.312;2023-07-24T09:28:24;23.10;99.90
31729;DHT22;18309;43.658;1.312;2023-07-24T09:30:58;23.00;99.90
31729;DHT22;18309;43.658;1.312;2023-07-24T09:33:42;23.10;99.90
31729;DHT22;18309;43.658;1.312;2023-07-24T09:36:09;23.10;99.90
31729;DHT22;18309;43.658;1.312;2023-07-24T09:38:37;23.10;99.90
31729;DHT22;18309;43.658;1.312;2023-07-24T09:41:04;23.10;99.90
31729;DHT22;18309;43.658;1.312;2023-07-24T09:43:30;23.10;99.90
31729;DHT22;18309;43.658;1.312;2023-07-24T09:45:57;23.10;99.90
31729;DHT22;18309;43.658;1.312;2023-07-24T09:48:26;23.10;99.90
31729;DHT22;18309;43.658;1.312;2023-07-24T09:50:54;23.20;99.90
31729;DHT22;18309;43.658;1.312;2023-07-24T09:56:05;23.20;99.90
31729;DHT22;18309;43.658;1.312;2023-07-24T09:58:35;23.20;99.90
31729;DHT22;18309;43.658;1.312;2023-07-24T10:01:02;23.20;99.90
31729;DHT22;18309;43.658;1.312;2023-07-24T10:03:30;23.30;99.90
31729;DHT22;18309;43.658;1.312;2023-07-24T10:05:56;23.20;99.90
31729;DHT22;18309;43.658;1.312;2023-07-24T10:08:22;23.30;99.90
31729;DHT22;18309;43.658;1.312;2023-07-24T10:10:49;23.40;99.90
31729;DHT22;18309;43.658;1.312;2023-07-24T10:13:17;23.40;99.90
31729;DHT22;18309;43.658;1.312;2023-07-24T10:15:45;23.50;99.90
31729;DHT22;18309;43.658;1.312;2023-07-24T10:18:11;23.40;99.90
31729;DHT22;18309;43.658;1.312;2023-07-24T10:20:40;23.40;99.90
31729;DHT22;18309;43.658;1.312;2023-07-24T10:23:08;23.20;99.90
31729;DHT22;18309;43.658;1.312;2023-07-24T10:25:38;23.10;99.90
31729;DHT22;18309;43.658;1.312;2023-07-24T10:28:07;23.10;99.90
31729;DHT22;18309;43.658;1.312;2023-07-24T10:30:36;23.30;99.90
31729;DHT22;18309;43.658;1.312;2023-07-24T10:33:12;23.40;99.90
31729;DHT22;18309;43.658;1.312;2023-07-24T10:35:47;23.30;99.90
31729;DHT22;18309;43.658;1.312;2023-07-24T10:38:15;23.50;99.90
31729;DHT22;18309;43.658;1.312;2023-07-24T10:40:42;23.40;99.90
31729;DHT22;18309;43.658;1.312;2023-07-24T10:43:18;23.40;99.90
31729;DHT22;18309;43.658;1.312;2023-07-24T10:45:53;23.40;99.90
31729;DHT22;18309;43.658;1.312;2023-07-24T10:48:20;23.40;99.90
31729;DHT22;18309;43.658;1.312;2023-07-24T10:50:48;23.50;99.90
31729;DHT22;18309;43.658;1.312;2023-07-24T10:53:19;23.60;99.90
31729;DHT22;18309;43.658;1.312;2023-07-24T10:55:46;23.30;99.90
31729;DHT22;18309;43.658;1.312;2023-07-24T10:58:16;23.30;99.90
31729;DHT22;18309;43.658;1.312;2023-07-24T11:00:43;23.50;99.90
31729;DHT22;18309;43.658;1.312;2023-07-24T11:03:13;23.70;99.90
31729;DHT22;18309;43.658;1.312;2023-07-24T11:05:48;23.70;99.90
31729;DHT22;18309;43.658;1.312;2023-07-24T11:08:16;23.80;99.90
31729;DHT22;18309;43.658;1.312;2023-07-24T11:13:11;23.50;99.90
31729;DHT22;18309;43.658;1.312;2023-07-24T11:15:38;23.40;99.90
31729;DHT22;18309;43.658;1.312;2023-07-24T11:18:04;23.40;99.90
31729;DHT22;18309;43.658;1.312;2023-07-24T11:20:42;23.50;99.90
31729;DHT22;18309;43.658;1.312;2023-07-24T11:23:08;23.50;99.90
31729;DHT22;18309;43.658;1.312;2023-07-24T11:25:35;23.40;99.90
31729;DHT22;18309;43.658;1.312;2023-07-24T11:28:00;23.50;99.90
31729;DHT22;18309;43.658;1.312;2023-07-24T11:30:26;23.50;99.90
31729;DHT22;18309;43.658;1.312;2023-07-24T11:32:52;23.50;99.90
31729;DHT22;18309;43.658;1.312;2023-07-24T11:35:19;23.60;99.90
31729;DHT22;18309;43.658;1.312;2023-07-24T11:37:45;23.60;99.90
31729;DHT22;18309;43.658;1.312;2023-07-24T11:40:11;23.80;99.90
31729;DHT22;18309;43.658;1.312;2023-07-24T11:42:41;23.90;99.90
31729;DHT22;18309;43.658;1.312;2023-07-24T11:45:08;23.90;99.90
31729;DHT22;18309;43.658;1.312;2023-07-24T11:47:48;23.80;99.90
31729;DHT22;18309;43.658;1.312;2023-07-24T11:50:14;23.90;99.50
31729;DHT22;18309;43.658;1.312;2023-07-24T11:52:44;24.00;99.20
31729;DHT22;18309;43.658;1.312;2023-07-24T11:55:11;24.10;99.10
31729;DHT22;18309;43.658;1.312;2023-07-24T11:57:37;24.10;99.40
31729;DHT22;18309;43.658;1.312;2023-07-24T12:00:04;24.30;99.50
31729;DHT22;18309;43.658;1.312;2023-07-24T12:02:34;24.20;99.00
31729;DHT22;18309;43.658;1.312;2023-07-24T12:05:00;24.00;99.50
31729;DHT22;18309;43.658;1.312;2023-07-24T12:07:33;24.00;99.30
31729;DHT22;18309;43.658;1.312;2023-07-24T12:10:03;24.00;99.10
31729;DHT22;18309;43.658;1.312;2023-07-24T12:15:07;24.10;99.30
31729;DHT22;18309;43.658;1.312;2023-07-24T12:17:33;24.00;98.50
31729;DHT22;18309;43.658;1.312;2023-07-24T12:19:59;24.10;98.20
31729;DHT22;18309;43.658;1.312;2023-07-24T12:22:24;24.30;98.20
31729;DHT22;18309;43.658;1.312;2023-07-24T12:24:50;24.40;97.90
31729;DHT22;18309;43.658;1.312;2023-07-24T12:27:16;24.60;97.60
31729;DHT22;18309;43.658;1.312;2023-07-24T12:29:41;24.40;97.70
31729;DHT22;18309;43.658;1.312;2023-07-24T12:32:07;24.30;97.90
31729;DHT22;18309;43.658;1.312;2023-07-24T12:34:33;24.20;98.20
31729;DHT22;18309;43.658;1.312;2023-07-24T12:36:58;24.30;98.60
31729;DHT22;18309;43.658;1.312;2023-07-24T12:39:24;24.50;98.30
31729;DHT22;18309;43.658;1.312;2023-07-24T12:41:50;24.50;96.80
31729;DHT22;18309;43.658;1.312;2023-07-24T12:44:15;24.60;97.40
31729;DHT22;18309;43.658;1.312;2023-07-24T12:46:41;24.80;96.70
31729;DHT22;18309;43.658;1.312;2023-07-24T12:49:06;24.80;96.50
31729;DHT22;18309;43.658;1.312;2023-07-24T12:51:32;24.70;96.20
31729;DHT22;18309;43.658;1.312;2023-07-24T12:53:58;24.70;96.30
31729;DHT22;18309;43.658;1.312;2023-07-24T12:56:24;24.60;96.70
31729;DHT22;18309;43.658;1.312;2023-07-24T12:58:49;24.50;96.80
31729;DHT22;18309;43.658;1.312;2023-07-24T13:01:15;24.30;98.30
31729;DHT22;18309;43.658;1.312;2023-07-24T13:03:41;23.80;99.50
31729;DHT22;18309;43.658;1.312;2023-07-24T13:06:06;23.50;99.90
31729;DHT22;18309;43.658;1.312;2023-07-24T13:08:32;23.30;99.90
31729;DHT22;18309;43.658;1.312;2023-07-24T13:10:58;23.10;99.90
31729;DHT22;18309;43.658;1.312;2023-07-24T13:13:24;22.90;99.90
31729;DHT22;18309;43.658;1.312;2023-07-24T13:15:50;22.90;99.90
31729;DHT22;18309;43.658;1.312;2023-07-24T13:18:17;22.90;99.90
31729;DHT22;18309;43.658;1.312;2023-07-24T13:20:45;22.80;99.90
31729;DHT22;18309;43.658;1.312;2023-07-24T13:23:11;22.70;99.90
31729;DHT22;18309;43.658;1.312;2023-07-24T13:25:36;22.60;99.90
31729;DHT22;18309;43.658;1.312;2023-07-24T13:28:02;22.60;99.90
31729;DHT22;18309;43.658;1.312;2023-07-24T13:30:28;22.70;99.90
31729;DHT22;18309;43.658;1.312;2023-07-24T13:32:53;22.80;99.90
31729;DHT22;18309;43.658;1.312;2023-07-24T13:35:19;22.90;99.90
31729;DHT22;18309;43.658;1.312;2023-07-24T13:37:45;22.80;99.90
31729;DHT22;18309;43.658;1.312;2023-07-24T13:40:11;23.00;99.90
31729;DHT22;18309;43.658;1.312;2023-07-24T13:42:37;22.90;99.90
31729;DHT22;18309;43.658;1.312;2023-07-24T13:45:03;22.90;99.90
31729;DHT22;18309;43.658;1.312;2023-07-24T13:47:28;22.90;99.90
31729;DHT22;18309;43.658;1.312;2023-07-24T13:49:54;23.00;99.90
31729;DHT22;18309;43.658;1.312;2023-07-24T13:52:20;23.10;99.90
31729;DHT22;18309;43.658;1.312;2023-07-24T13:54:46;23.40;99.90
31729;DHT22;18309;43.658;1.312;2023-07-24T13:57:13;23.40;99.90
31729;DHT22;18309;43.658;1.312;2023-07-24T13:59:38;23.50;99.60
31729;DHT22;18309;43.658;1.312;2023-07-24T14:02:06;23.50;99.10
31729;DHT22;18309;43.658;1.312;2023-07-24T14:04:32;23.60;99.00
31729;DHT22;18309;43.658;1.312;2023-07-24T14:06:57;23.80;98.80
31729;DHT22;18309;43.658;1.312;2023-07-24T14:09:23;23.80;98.40
31729;DHT22;18309;43.658;1.312;2023-07-24T14:11:49;23.90;98.10
31729;DHT22;18309;43.658;1.312;2023-07-24T14:14:17;23.70;97.50
31729;DHT22;18309;43.658;1.312;2023-07-24T14:16:43;23.80;98.10
31729;DHT22;18309;43.658;1.312;2023-07-24T14:19:09;23.90;97.50
31729;DHT22;18309;43.658;1.312;2023-07-24T14:21:34;24.00;97.50
31729;DHT22;18309;43.658;1.312;2023-07-24T14:24:00;24.10;97.50
31729;DHT22;18309;43.658;1.312;2023-07-24T14:26:27;24.00;97.50
31729;DHT22;18309;43.658;1.312;2023-07-24T14:28:52;23.90;97.90
31729;DHT22;18309;43.658;1.312;2023-07-24T14:31:18;23.90;97.90
31729;DHT22;18309;43.658;1.312;2023-07-24T14:33:44;23.90;97.50
31729;DHT22;18309;43.658;1.312;2023-07-24T14:36:09;24.10;97.70
31729;DHT22;18309;43.658;1.312;2023-07-24T14:38:35;24.10;97.50
31729;DHT22;18309;43.658;1.312;2023-07-24T14:41:01;24.00;97.50
31729;DHT22;18309;43.658;1.312;2023-07-24T14:43:27;23.90;97.90
31729;DHT22;18309;43.658;1.312;2023-07-24T14:45:52;24.00;97.80
31729;DHT22;18309;43.658;1.312;2023-07-24T14:48:18;24.00;97.70
31729;DHT22;18309;43.658;1.312;2023-07-24T14:50:44;24.00;97.70
31729;DHT22;18309;43.658;1.312;2023-07-24T14:53:09;24.10;97.40
31729;DHT22;18309;43.658;1.312;2023-07-24T14:55:35;23.90;97.50
31729;DHT22;18309;43.658;1.312;2023-07-24T14:58:01;23.90;97.00
31729;DHT22;18309;43.658;1.312;2023-07-24T15:00:26;23.90;97.20
31729;DHT22;18309;43.658;1.312;2023-07-24T15:02:53;23.90;97.00
31729;DHT22;18309;43.658;1.312;2023-07-24T15:05:19;24.00;96.80
31729;DHT22;18309;43.658;1.312;2023-07-24T15:07:44;23.90;96.80
31729;DHT22;18309;43.658;1.312;2023-07-24T15:10:10;23.90;96.90
31729;DHT22;18309;43.658;1.312;2023-07-24T15:12:36;23.90;96.70
31729;DHT22;18309;43.658;1.312;2023-07-24T15:15:02;24.00;96.50
31729;DHT22;18309;43.658;1.312;2023-07-24T15:17:28;24.00;96.50
31729;DHT22;18309;43.658;1.312;2023-07-24T15:19:54;23.90;96.50
31729;DHT22;18309;43.658;1.312;2023-07-24T15:22:19;23.90;96.70
31729;DHT22;18309;43.658;1.312;2023-07-24T15:24:46;23.90;96.90
31729;DHT22;18309;43.658;1.312;2023-07-24T15:27:11;23.80;97.40
31729;DHT22;18309;43.658;1.312;2023-07-24T15:29:37;23.70;97.70
31729;DHT22;18309;43.658;1.312;2023-07-24T15:32:04;23.70;97.90
31729;DHT22;18309;43.658;1.312;2023-07-24T15:34:30;23.70;97.80